Latest Coastal Weather Observations for Yanakie

IDV60701

Issued at 7:41 am EST Saturday 29 April 2017 (issued every 10 minutes, with the page automatically refreshed every 10 minutes)

About coastal observations | Map of coastal stations | Coastal observations for VIC | Marine services | Other Formats
Station Details ID: 085301 Name: YANAKIE Lat: -38.81 Lon: 146.19 Height: 13.3 m
Data from the previous 72 hours. | See also: Recent months at Yanakie
Date/Time
EST
Temp
°C
Wind Pressure Rain since
9am
mm
Weather Cloud Vis
km
Sea
Height
m
Swell
Dir  Spd
kts
Gust
kts
hPa Trend Height
m
Period
s
Dir
29/07:30am 14.3 W 12 16 1019.4 - 3.2 - - - - - - -
29/07:00am 14.1 W 14 17 1019.0 - 3.2 - - - - - - -
29/06:30am 14.5 W 13 16 1019.1 - 3.2 - - - - - - -
29/06:00am 14.4 W 17 23 1018.9 - 3.2 Recent precip. - - - - - -
29/05:30am 14.3 W 13 16 1018.9 - 3.0 - - - - - - -
29/05:00am 14.8 W 11 15 1018.9 - 2.8 - - - - - - -
29/04:30am 14.8 W 12 16 1018.8 - 2.8 - - - - - - -
29/04:00am 14.8 WNW 13 19 1018.7 - 2.8 - - - - - - -
29/03:30am 14.6 WNW 14 19 1018.7 - 2.6 - - - - - - -
29/03:00am 14.4 WNW 15 21 1018.8 - 2.6 Recent precip. - - - - - -
29/02:30am 14.4 W 17 24 1019.0 - 1.8 - - - - - - -
29/02:00am 14.5 WNW 15 21 1019.2 - 1.4 - - - - - - -
29/01:30am 14.6 W 16 24 1019.3 - 1.2 - - - - - - -
29/01:00am 14.8 W 13 18 1019.4 - 1.0 - - - - - - -
29/12:30am 14.8 W 17 28 1019.4 - 1.0 - - - - - - -
29/12:29am 14.8 W 16 28 1019.4 - 1.0 - - - - - - -
29/12:00am 14.8 W 16 21 1019.5 - 0.8 Recent precip. - - - - - -
 
Date/Time
EST
Temp
°C
Wind Pressure Rain since
9am
mm
Weather Cloud Vis
km
Sea
Height
m
Swell
Dir  Spd
kts
Gust
kts
hPa Trend Height
m
Period
s
Dir
28/11:30pm 14.7 W 17 22 1019.6 - 0.8 - - - - - - -
28/11:00pm 14.9 W 16 23 1019.8 - 0.4 - - - - - - -
28/10:30pm 14.5 W 13 17 1019.9 - 0.2 - - - - - - -
28/10:00pm 14.3 W 12 18 1020.0 - 0.2 - - - - - - -
28/09:30pm 14.7 W 17 26 1020.3 - 0.0 - - - - - - -
28/09:27pm 14.8 W 17 25 1020.3 - 0.0 - - - - - - -
28/09:00pm 14.7 W 12 15 1020.1 - 0.0 - - - - - - -
28/08:30pm 15.0 W 18 25 1020.2 - 0.0 - - - - - - -
28/08:26pm 15.2 W 15 25 1020.2 - 0.0 - - - - - - -
28/08:00pm 15.2 W 17 25 1020.4 - 0.0 - - - - - - -
28/07:30pm 15.3 W 15 20 1020.4 - 0.0 - - - - - - -
28/07:00pm 15.5 W 13 17 1020.4 - 0.0 - - - - - - -
28/06:30pm 15.4 W 15 21 1020.2 - 0.0 - - - - - - -
28/06:00pm 15.4 WNW 12 16 1019.9 - 0.0 - - - - - - -
28/05:30pm 15.5 W 14 20 1019.9 - 0.0 - - - - - - -
28/05:00pm 15.8 W 13 17 1019.7 - 0.0 - - - - - - -
28/04:30pm 16.3 W 16 21 1019.7 - 0.0 - - - - - - -
28/04:00pm 17.2 W 18 24 1019.9 - 0.0 - - - - - - -
28/03:30pm 16.2 W 18 25 1020.0 - 0.0 - - - - - - -
28/03:00pm 16.5 W 18 23 1019.9 - 0.0 - - - - - - -
28/02:30pm 16.6 W 15 21 1020.1 - 0.0 - - - - - - -
28/02:00pm 17.5 WNW 16 23 1020.1 - 0.0 - - - - - - -
28/01:30pm 15.7 WNW 17 23 1020.1 - 0.0 - - - - - - -
28/01:00pm 15.7 WNW 15 21 1020.5 - 0.0 - - - - - - -
28/12:30pm 15.9 WNW 15 23 1020.8 - 0.0 - - - - - - -
28/12:00pm 16.5 WNW 15 20 1021.0 - 0.0 - - - - - - -
28/11:30am 16.1 WNW 14 19 1021.2 - 0.0 - - - - - - -
28/11:00am 16.3 WNW 15 20 1021.4 - 0.0 - - - - - - -
28/10:30am 16.3 WNW 13 18 1021.6 - 0.0 - - - - - - -
28/10:00am 14.9 WNW 15 20 1021.7 - 0.0 - - - - - - -
28/09:30am 14.2 NW 15 19 1021.7 - 0.0 - - - - - - -
28/09:00am 13.4 WNW 12 18 1021.7 - 0.0 - - - - - - -
28/08:30am 13.4 NW 12 16 1021.4 - 0.0 - - - - - - -
28/08:00am 12.7 NW 11 16 1021.2 - 0.0 - - - - - - -
28/07:30am 12.0 NW 10 15 1021.2 - 0.0 - - - - - - -
28/07:00am 12.2 NW 11 16 1020.8 - 0.0 - - - - - - -
28/06:30am 12.1 NW 13 18 1020.7 - 0.0 - - - - - - -
28/06:00am 11.9 NW 12 17 1020.6 - 0.0 - - - - - - -
28/05:30am 11.9 NW 12 18 1020.3 - 0.0 - - - - - - -
28/05:00am 11.6 NW 12 16 1020.2 - 0.0 - - - - - - -
28/04:30am 11.5 NW 10 16 1020.1 - 0.0 - - - - - - -
28/04:00am 11.4 NW 10 14 1020.3 - 0.0 - - - - - - -
28/03:30am 11.1 NW 10 13 1020.2 - 0.0 - - - - - - -
28/03:00am 10.8 NW 9 13 1020.3 - 0.0 - - - - - - -
28/02:30am 10.6 NW 10 13 1020.7 - 0.0 - - - - - - -
28/02:00am 11.1 NW 10 14 1021.2 - 0.0 - - - - - - -
28/01:30am 11.0 NW 11 15 1021.0 - 0.0 - - - - - - -
28/01:00am 11.1 NW 10 16 1021.1 - 0.0 - - - - - - -
28/12:30am 10.9 NW 10 14 1021.3 - 0.0 - - - - - - -
28/12:00am 10.8 NW 11 16 1021.4 - 0.0 - - - - - - -
 
Date/Time
EST
Temp
°C
Wind Pressure Rain since
9am
mm
Weather Cloud Vis
km
Sea
Height
m
Swell
Dir  Spd
kts
Gust
kts
hPa Trend Height
m
Period
s
Dir
27/11:30pm 10.6 NW 11 16 1021.6 - 0.0 - - - - - - -
27/11:00pm 10.7 NW 9 13 1021.7 - 0.0 - - - - - - -
27/10:30pm 10.6 NW 9 12 1021.7 - 0.0 - - - - - - -
27/10:00pm 10.5 NNW 6 9 1021.7 - 0.0 - - - - - - -
27/09:30pm 10.4 NNW 7 9 1021.8 - 0.0 - - - - - - -
27/09:00pm 11.2 NW 9 11 1021.9 - 0.0 - - - - - - -
27/08:30pm 10.5 WNW 5 7 1021.7 - 0.0 - - - - - - -
27/08:00pm 10.2 WNW 6 7 1021.6 - 0.0 - - - - - - -
27/07:30pm 10.7 NW 6 8 1021.8 - 0.0 - - - - - - -
27/07:00pm 11.2 W 6 8 1021.8 - 0.0 - - - - - - -
27/06:30pm 11.3 W 8 13 1021.6 - 0.0 - - - - - - -
27/06:00pm 11.5 WNW 7 9 1021.2 - 0.0 - - - - - - -
27/05:30pm 12.4 WSW 9 13 1021.1 - 0.0 - - - - - - -
27/05:00pm 12.1 WSW 8 13 1021.1 - 0.0 - - - - - - -
27/04:30pm 12.3 W 9 13 1021.3 - 0.0 - - - - - - -
27/04:00pm 12.3 W 10 13 1021.3 - 0.0 - - - - - - -
27/03:30pm 12.0 WSW 12 17 1021.5 - 0.0 - - - - - - -
27/03:00pm 13.1 WSW 10 15 1021.1 - 0.0 - - - - - - -
27/02:30pm 13.7 WSW 11 15 1021.2 - 0.0 - - - - - - -
27/02:00pm 13.9 WSW 10 15 1021.5 - 0.0 - - - - - - -
27/01:30pm 13.6 WSW 11 15 1021.5 - 0.0 - - - - - - -
27/01:00pm 13.1 WSW 9 13 1021.2 - 0.0 - - - - - - -
27/12:30pm 12.4 SW 13 19 1021.3 - 0.0 - - - - - - -
27/12:00pm 14.4 SW 12 17 1021.7 - 0.0 - - - - - - -
27/11:30am 14.6 SW 12 16 1021.8 - 0.0 - - - - - - -
27/11:00am 14.0 SW 12 17 1021.9 - 0.0 - - - - - - -
27/10:30am 14.7 SW 12 16 1021.7 - 0.0 - - - - - - -
27/10:00am 13.0 SSW 11 15 1021.6 - 0.0 - - - - - - -
27/09:30am 13.1 SSW 10 16 1021.7 - 0.0 - - - - - - -
27/09:00am 12.6 SSW 11 17 1021.6 - 1.0 - - - - - - -
27/08:30am 12.8 SSW 12 16 1021.2 - 1.0 - - - - - - -
27/08:00am 11.1 SSW 9 13 1020.9 - 1.0 - - - - - - -
27/07:30am 10.8 SSW 8 11 1020.7 - 1.0 - - - - - - -
27/07:00am 10.7 SSW 8 11 1020.4 - 1.0 - - - - - - -
27/06:30am 11.0 SSW 9 13 1020.1 - 1.0 - - - - - - -
27/06:00am 10.8 SSW 10 13 1019.8 - 1.0 - - - - - - -
27/05:30am 10.6 SSW 8 11 1019.4 - 1.0 - - - - - - -
27/05:00am 10.6 SSW 8 11 1019.0 - 1.0 - - - - - - -
27/04:30am 10.6 SSW 8 11 1018.7 - 1.0 - - - - - - -
27/04:00am 10.6 SSW 8 13 1018.4 - 1.0 - - - - - - -
27/03:30am 10.9 SSW 10 13 1018.3 - 1.0 - - - - - - -
27/03:00am 9.6 E 1 2 1018.4 - 1.0 - - - - - - -
27/02:30am 9.4 SSE 3 4 1018.6 - 1.0 - - - - - - -
27/02:00am 10.5 SSE 5 12 1018.4 - 1.0 - - - - - - -
27/01:30am 10.8 S 7 13 1018.2 - 1.0 - - - - - - -
27/01:00am 11.4 SSW 12 18 1017.9 - 1.0 - - - - - - -
27/12:30am 11.0 SSW 13 19 1017.5 - 1.0 - - - - - - -
27/12:00am 11.2 SSW 13 18 1017.3 - 1.0 - - - - - - -
 
Date/Time
EST
Temp
°C
Wind Pressure Rain since
9am
mm
Weather Cloud Vis
km
Sea
Height
m
Swell
Dir  Spd
kts
Gust
kts
hPa Trend Height
m
Period
s
Dir
26/11:30pm 11.3 SSW 14 21 1017.2 - 1.0 - - - - - - -
26/11:00pm 11.3 SSW 16 22 1017.1 - 1.0 - - - - - - -
26/10:30pm 11.7 SSW 18 24 1017.1 - 1.0 - - - - - - -
26/10:00pm 11.6 SSW 17 25 1016.9 - 1.0 - - - - - - -
26/09:30pm 11.4 SSW 16 25 1016.7 - 1.0 - - - - - - -
26/09:00pm 11.4 SSW 16 21 1016.3 - 1.0 - - - - - - -
26/08:30pm 11.5 SW 18 28 1016.0 - 1.0 - - - - - - -
26/08:25pm 11.6 SSW 16 28 1016.0 - 1.0 - - - - - - -
26/08:00pm 11.3 SW 17 24 1015.9 - 1.0 - - - - - - -
26/07:43pm 11.0 SW 16 29 1015.6 - 1.0 - - - - - - -
26/07:30pm 10.6 SW 19 26 1015.5 - 1.0 - - - - - - -
26/07:00pm 10.6 SSW 17 24 1015.3 - 1.0 - - - - - - -
26/06:30pm 10.5 SW 17 23 1014.8 - 1.0 - - - - - - -
26/06:00pm 9.9 SSW 16 23 1014.5 - 1.0 Recent precip. - - - - - -
26/05:33pm 10.7 SSW 15 31 1014.1 - 0.8 - - - - - - -
26/05:30pm 10.7 SSW 13 19 1014.0 - 0.8 - - - - - - -
26/05:00pm 9.9 SW 18 27 1013.6 - 0.8 - - - - - - -
26/04:36pm 12.1 SSW 15 29 1013.5 - 0.0 - - - - - - -
26/04:30pm 11.8 SSW 13 18 1013.4 - 0.0 - - - - - - -
26/04:22pm 10.9 SSW 15 26 1013.3 - 0.0 - - - - - - -
26/04:00pm 12.2 SW 22 30 1013.2 - 0.0 - - - - - - -
26/03:33pm 13.2 SW 20 32 1012.6 - 0.0 - - - - - - -
26/03:30pm 12.2 SW 18 27 1012.6 - 0.0 - - - - - - -
26/03:01pm 12.1 SW 19 30 1012.2 - 0.0 - - - - - - -
26/03:00pm 12.4 SW 19 28 1012.2 - 0.0 - - - - - - -
26/02:42pm 11.0 WSW 18 27 1012.0 - 0.0 - - - - - - -
26/02:38pm 11.1 WSW 21 27 1011.8 - 0.0 - - - - - - -
26/02:30pm 12.9 SW 21 27 1011.8 - 0.0 - - - - - - -
26/02:00pm 12.4 SSW 20 29 1011.4 - 0.0 - - - - - - -
26/01:30pm 13.2 SW 22 28 1011.1 - 0.0 - - - - - - -
26/01:00pm 12.9 SSW 20 32 1011.0 - 0.0 - - - - - - -
26/12:46pm 13.6 SW 21 32 1010.8 - 0.0 - - - - - - -
26/12:30pm 13.1 SSW 21 29 1010.7 - 0.0 - - - - - - -
26/12:00pm 14.2 SSW 20 29 1010.4 - 0.0 - - - - - - -
26/11:43am 14.0 SW 21 31 1010.4 - 0.0 - - - - - - -
26/11:30am 13.7 SSW 20 26 1010.2 - 0.0 - - - - - - -
26/11:00am 13.3 SW 22 28 1009.6 - 0.0 - - - - - - -
26/10:30am 13.7 SSW 22 29 1009.1 - 0.0 - - - - - - -
26/10:00am 13.5 SSW 23 31 1008.4 - 0.0 - - - - - - -
26/09:30am 13.1 SSW 23 33 1008.1 - 0.0 - - - - - - -
26/09:28am 13.0 SSW 22 33 1008.1 - 0.0 - - - - - - -
26/09:00am 12.6 SSW 21 30 1007.6 - 11.4 Recent precip. - - - - - -
26/08:30am 12.3 SSW 20 26 1007.1 - 11.4 - - - - - - -
26/08:00am 11.3 SW 16 26 1006.3 - 11.2 - - - - - - -

Other Formats:

Comma delimited format used in spreadsheet applications
http://www.bom.gov.au/fwo/IDV60701/IDV60701.94911.axf

JavaScript Object Notation format (JSON) in row-major order
http://www.bom.gov.au/fwo/IDV60701/IDV60701.94911.json